Time;durP1;ratioP1;P1;durP2;ratioP2;P2;SDS_P1;SDS_P2;PMS_P1;PMS_P2;Temp;Humidity;BMP_temperature;BMP_pressure;BME280_temperature;BME280_humidity;BME280_pressure;Samples;Min_cycle;Max_cycle;Signal;HPM_P1;HPM_P2
2022/03/07 00:01:10;;;;;;;23.5;27.2;;;;;;;-0.6;65.5;99190;;;;
2022/03/07 00:12:10;;;;;;;23.5;27.2;;;;;;;-0.7;66.6;99190;;;;
2022/03/07 00:22:10;;;;;;;23.5;27.2;;;;;;;-0.7;66.5;99190;;;;
2022/03/07 00:33:10;;;;;;;28.7;34.7;;;;;;;-0.7;67.2;99190;;;;
2022/03/07 00:43:10;;;;;;;28.7;34.7;;;;;;;-0.7;67;99190;;;;
2022/03/07 00:54:10;;;;;;;28.7;37.2;;;;;;;-0.8;66.7;99190;;;;
2022/03/07 01:04:10;;;;;;;28.7;37.2;;;;;;;-0.9;66.6;99180;;;;
2022/03/07 01:14:10;;;;;;;28.7;37.2;;;;;;;-1;66.1;99180;;;;
2022/03/07 01:25:10;;;;;;;25.4;30.9;;;;;;;-1.1;65.9;99180;;;;
2022/03/07 01:36:10;;;;;;;25.4;30.9;;;;;;;-1.1;66.2;99170;;;;
2022/03/07 01:47:10;;;;;;;25.4;30.9;;;;;;;-1.1;66.7;99170;;;;
2022/03/07 01:57:10;;;;;;;25.5;28.8;;;;;;;-1.2;67.4;99170;;;;
2022/03/07 02:08:10;;;;;;;25.5;28.8;;;;;;;-1.3;67.4;99170;;;;
2022/03/07 02:18:10;;;;;;;25.5;28.8;;;;;;;-1.4;67.5;99170;;;;
2022/03/07 02:28:10;;;;;;;24.8;29.6;;;;;;;-1.5;67.8;99160;;;;
2022/03/07 02:39:10;;;;;;;24.8;29.6;;;;;;;-1.5;68.2;99150;;;;
2022/03/07 02:50:10;;;;;;;24.8;29.6;;;;;;;-1.7;68.6;99140;;;;
2022/03/07 03:00:10;;;;;;;24.7;32.9;;;;;;;-1.7;68.7;99140;;;;
2022/03/07 03:10:10;;;;;;;24.7;32.9;;;;;;;-1.7;68.6;99130;;;;
2022/03/07 03:21:11;;;;;;;24.7;32.9;;;;;;;-1.7;68.5;99140;;;;
2022/03/07 03:31:11;;;;;;;23.5;28.9;;;;;;;-1.6;68.2;99130;;;;
2022/03/07 03:42:11;;;;;;;23.5;28.9;;;;;;;-1.7;68.2;99130;;;;
2022/03/07 03:53:10;;;;;;;24.3;28.6;;;;;;;-1.7;66.3;99120;;;;
2022/03/07 04:04:10;;;;;;;24.3;28.6;;;;;;;-1.8;65.7;99120;;;;
2022/03/07 04:15:11;;;;;;;24.3;28.6;;;;;;;-1.8;63.3;99110;;;;
2022/03/07 04:26:10;;;;;;;22.2;27.2;;;;;;;-1.8;61.8;99110;;;;
2022/03/07 04:36:10;;;;;;;22.2;27.2;;;;;;;-1.9;61;99110;;;;
2022/03/07 04:46:10;;;;;;;22.2;27.2;;;;;;;-1.9;59;99110;;;;
2022/03/07 04:57:10;;;;;;;19.2;24.6;;;;;;;-2;56.1;99100;;;;
2022/03/07 05:07:10;;;;;;;19.2;24.6;;;;;;;-1.9;55.3;99110;;;;
2022/03/07 05:17:10;;;;;;;19.2;24.6;;;;;;;-1.9;54.4;99110;;;;
2022/03/07 05:27:10;;;;;;;17.5;21.4;;;;;;;-1.8;56.1;99130;;;;
2022/03/07 05:37:10;;;;;;;17.5;21.4;;;;;;;-1.8;57.4;99130;;;;
2022/03/07 05:48:10;;;;;;;17.5;21.4;;;;;;;-1.8;58.9;99130;;;;
2022/03/07 05:59:10;;;;;;;23.2;28.9;;;;;;;-1.8;59.8;99130;;;;
2022/03/07 06:10:10;;;;;;;23.2;28.9;;;;;;;-1.7;60.5;99140;;;;
2022/03/07 06:21:10;;;;;;;23.2;28.9;;;;;;;-1.7;60.1;99150;;;;
2022/03/07 06:31:10;;;;;;;24.8;30.3;;;;;;;-1.6;59.9;99160;;;;
2022/03/07 06:42:10;;;;;;;24.8;30.3;;;;;;;-1.5;61.2;99150;;;;
2022/03/07 06:53:10;;;;;;;23.5;31.3;;;;;;;-1.4;62.4;99160;;;;
2022/03/07 07:03:11;;;;;;;23.5;31.3;;;;;;;-1.2;63.1;99150;;;;
2022/03/07 07:14:10;;;;;;;23.5;31.3;;;;;;;-0.9;62.9;99170;;;;
2022/03/07 07:25:10;;;;;;;24.8;29;;;;;;;-0.8;62.1;99170;;;;
2022/03/07 07:35:10;;;;;;;24.8;29;;;;;;;-0.7;62.4;99170;;;;
2022/03/07 07:46:10;;;;;;;24.8;29;;;;;;;-0.6;62.7;99170;;;;
2022/03/07 07:56:10;;;;;;;22.7;26.1;;;;;;;-0.5;62.9;99170;;;;
2022/03/07 08:06:10;;;;;;;22.7;26.1;;;;;;;-0.4;62.8;99170;;;;
2022/03/07 08:17:11;;;;;;;22.7;26.1;;;;;;;-0.1;61.5;99180;;;;
2022/03/07 08:28:12;;;;;;;22.6;28.8;;;;;;;-0.2;61.4;99170;;;;
2022/03/07 08:39:11;;;;;;;22.6;28.8;;;;;;;0.2;61;99170;;;;
2022/03/07 08:49:11;;;;;;;22.6;28.8;;;;;;;0.5;59.5;99170;;;;
2022/03/07 09:00:10;;;;;;;19.5;23.4;;;;;;;1.1;58.6;99150;;;;
2022/03/07 09:10:11;;;;;;;19.5;23.4;;;;;;;1;57.5;99150;;;;
2022/03/07 09:20:12;;;;;;;19.5;23.4;;;;;;;1.5;55.9;99150;;;;
2022/03/07 09:30:11;;;;;;;19.2;23.9;;;;;;;1.7;55;99150;;;;
2022/03/07 09:41:11;;;;;;;19.2;23.9;;;;;;;1.9;55.4;99160;;;;
2022/03/07 09:51:11;;;;;;;18.1;21.5;;;;;;;2.1;54.7;99160;;;;
2022/03/07 10:02:14;;;;;;;18.1;21.5;;;;;;;2.2;52.2;99160;;;;
2022/03/07 10:13:11;;;;;;;18.1;21.5;;;;;;;2.5;51.2;99150;;;;
2022/03/07 10:23:11;;;;;;;13.6;18.1;;;;;;;2.7;50.2;99160;;;;
2022/03/07 10:34:11;;;;;;;13.6;18.1;;;;;;;2.5;52.1;99150;;;;
2022/03/07 10:44:11;;;;;;;13.6;18.1;;;;;;;2.8;53.2;99150;;;;
2022/03/07 10:55:11;;;;;;;15.6;18.7;;;;;;;2.8;52.3;99150;;;;
2022/03/07 11:05:11;;;;;;;15.6;18.7;;;;;;;2.5;51.8;99140;;;;
2022/03/07 11:15:11;;;;;;;15.6;18.7;;;;;;;2.8;52;99130;;;;
2022/03/07 11:26:11;;;;;;;12.5;18.2;;;;;;;3.1;51.1;99130;;;;
2022/03/07 11:37:11;;;;;;;12.5;18.2;;;;;;;3.2;50.1;99130;;;;
2022/03/07 11:47:11;;;;;;;12.5;18.2;;;;;;;3.1;49.9;99120;;;;
2022/03/07 11:58:11;;;;;;;10.9;13.6;;;;;;;3.6;49.4;99090;;;;
2022/03/07 12:08:11;;;;;;;10.9;13.6;;;;;;;3.3;48.8;99080;;;;
2022/03/07 12:19:11;;;;;;;10.9;13.6;;;;;;;2.8;48.2;99080;;;;
2022/03/07 12:29:11;;;;;;;8.8;11.9;;;;;;;2.9;47.8;99070;;;;
2022/03/07 12:39:11;;;;;;;8.8;11.9;;;;;;;3.3;47.5;99070;;;;
2022/03/07 12:50:11;;;;;;;6.6;10.4;;;;;;;3.2;48.1;99070;;;;
2022/03/07 13:00:11;;;;;;;6.6;10.4;;;;;;;3.2;48.4;99070;;;;
2022/03/07 13:10:11;;;;;;;6.6;10.4;;;;;;;3.5;48.4;99060;;;;
2022/03/07 13:21:11;;;;;;;10.1;17.8;;;;;;;3.3;49.7;99050;;;;
2022/03/07 13:31:11;;;;;;;10.1;17.8;;;;;;;3.4;49.9;99040;;;;
2022/03/07 13:41:11;;;;;;;10.1;17.8;;;;;;;3.5;49;99040;;;;
2022/03/07 13:52:11;;;;;;;11.4;14.6;;;;;;;3.9;49.9;99030;;;;
2022/03/07 14:02:11;;;;;;;11.4;14.6;;;;;;;3.7;49.4;99030;;;;
2022/03/07 14:12:11;;;;;;;11.4;14.6;;;;;;;3.8;49.6;99020;;;;
2022/03/07 14:23:11;;;;;;;11.4;16.5;;;;;;;3.6;50.3;99030;;;;
2022/03/07 14:33:11;;;;;;;11.4;16.5;;;;;;;3.4;49.9;99030;;;;
2022/03/07 14:44:11;;;;;;;11.4;16.5;;;;;;;3.1;51.5;99020;;;;
2022/03/07 14:55:11;;;;;;;11.1;17.2;;;;;;;2.9;53.1;99030;;;;
2022/03/07 15:05:11;;;;;;;11.1;17.2;;;;;;;2.9;53.2;99020;;;;
2022/03/07 15:16:11;;;;;;;11.1;17.2;;;;;;;2.8;53.8;99020;;;;
2022/03/07 15:26:11;;;;;;;13.6;20.8;;;;;;;2.6;54.6;99020;;;;
2022/03/07 15:37:11;;;;;;;13.6;20.8;;;;;;;2.3;55.3;99020;;;;
2022/03/07 15:48:11;;;;;;;13.6;20.8;;;;;;;2.1;56.5;99010;;;;
2022/03/07 15:58:11;;;;;;;14.9;19;;;;;;;1.9;57.3;99020;;;;
2022/03/07 16:09:11;;;;;;;14.9;19;;;;;;;1.7;58.4;99020;;;;
2022/03/07 16:19:11;;;;;;;14.9;19;;;;;;;1.6;59.6;99020;;;;
2022/03/07 16:30:11;;;;;;;18.8;25.7;;;;;;;1.4;60.3;99020;;;;
2022/03/07 16:40:11;;;;;;;18.8;25.7;;;;;;;1.3;61.2;99020;;;;
2022/03/07 16:50:11;;;;;;;24.7;32.7;;;;;;;1.2;61.8;99040;;;;
2022/03/07 17:01:11;;;;;;;24.7;32.7;;;;;;;1.2;62.2;99060;;;;
2022/03/07 17:12:11;;;;;;;24.7;32.7;;;;;;;1.1;62.7;99060;;;;
2022/03/07 17:22:12;;;;;;;25.1;31.3;;;;;;;1.2;62.8;99080;;;;
2022/03/07 17:32:11;;;;;;;25.1;31.3;;;;;;;1.2;63.2;99080;;;;
2022/03/07 17:43:11;;;;;;;25.1;31.3;;;;;;;1.2;65.1;99100;;;;
2022/03/07 17:54:11;;;;;;;32.4;39.4;;;;;;;1.3;68.2;99110;;;;
2022/03/07 18:04:11;;;;;;;32.4;39.4;;;;;;;1.3;69.5;99110;;;;
2022/03/07 18:14:11;;;;;;;32.4;39.4;;;;;;;1.4;69.7;99110;;;;
2022/03/07 18:24:11;;;;;;;29.4;34.4;;;;;;;1.3;70.2;99120;;;;
2022/03/07 18:34:11;;;;;;;29.4;34.4;;;;;;;1.3;70.1;99120;;;;
2022/03/07 18:44:11;;;;;;;29.4;34.4;;;;;;;1;70.4;99120;;;;
2022/03/07 18:54:11;;;;;;;35.7;44.8;;;;;;;0.8;71.6;99130;;;;
2022/03/07 19:04:11;;;;;;;35.7;44.8;;;;;;;0.8;72.3;99150;;;;
2022/03/07 19:14:11;;;;;;;35.7;44.8;;;;;;;0.7;72.3;99150;;;;
2022/03/07 19:25:11;;;;;;;43.6;50.8;;;;;;;0.7;72.6;99160;;;;
2022/03/07 19:36:11;;;;;;;43.6;50.8;;;;;;;0.7;72.5;99160;;;;
2022/03/07 19:46:11;;;;;;;43.6;50.8;;;;;;;0.7;72.5;99170;;;;
2022/03/07 19:57:11;;;;;;;63.4;72.9;;;;;;;0.7;72.5;99170;;;;
2022/03/07 20:08:11;;;;;;;63.4;72.9;;;;;;;0.7;73.2;99180;;;;
2022/03/07 20:18:11;;;;;;;63.4;72.9;;;;;;;0.7;73;99180;;;;
2022/03/07 20:28:11;;;;;;;52.3;65.8;;;;;;;0.7;72.9;99190;;;;
2022/03/07 20:39:11;;;;;;;52.3;65.8;;;;;;;0.6;73;99200;;;;
2022/03/07 20:49:11;;;;;;;53.7;65.2;;;;;;;0.5;73.3;99210;;;;
2022/03/07 20:59:11;;;;;;;53.7;65.2;;;;;;;0.3;74.1;99210;;;;
2022/03/07 21:09:11;;;;;;;53.7;65.2;;;;;;;0;74.6;99210;;;;
2022/03/07 21:20:11;;;;;;;58.1;66.6;;;;;;;-0.3;75.1;99210;;;;
2022/03/07 21:30:11;;;;;;;58.1;66.6;;;;;;;-0.6;75.6;99210;;;;
2022/03/07 21:40:11;;;;;;;58.1;66.6;;;;;;;-0.7;75.8;99210;;;;
2022/03/07 21:50:11;;;;;;;54.7;63.1;;;;;;;-0.9;76.2;99210;;;;
2022/03/07 22:01:11;;;;;;;54.7;63.1;;;;;;;-1.1;76.5;99210;;;;
2022/03/07 22:12:11;;;;;;;54.7;63.1;;;;;;;-1.2;77;99210;;;;
2022/03/07 22:23:11;;;;;;;52.3;60.9;;;;;;;-1.2;77.8;99210;;;;
2022/03/07 22:33:11;;;;;;;52.3;60.9;;;;;;;-1.4;77.5;99210;;;;
2022/03/07 22:43:11;;;;;;;52.3;60.9;;;;;;;-1.5;78.2;99210;;;;
2022/03/07 22:53:11;;;;;;;48;64.9;;;;;;;-1.5;78.3;99210;;;;
2022/03/07 23:04:11;;;;;;;48;64.9;;;;;;;-1.4;78.6;99210;;;;
2022/03/07 23:14:11;;;;;;;48;64.9;;;;;;;-1.3;78.5;99210;;;;
2022/03/07 23:25:11;;;;;;;47;63.1;;;;;;;-1;78.2;99200;;;;
2022/03/07 23:36:11;;;;;;;47;63.1;;;;;;;-0.8;77.8;99210;;;;
2022/03/07 23:46:11;;;;;;;47;63.1;;;;;;;-0.7;77.7;99210;;;;
2022/03/07 23:57:11;;;;;;;47;63.3;;;;;;;-0.6;77.4;99220;;;;
